Surabaya Perak, Indonesia

8:55 PM WIB on July 29, 2015 (GMT +0700)
Juanda | | Change Station
CLOSE
Current Station
Airport
Location: Juanda,
Elevation: 10 ft
Nearby Weather Stations

Elev 10 ft 7.38 °S, 112.79 °E | Updated 25 minutes ago

Partly Cloudy
Partly Cloudy
81 °F
Feels Like 84 °F
N
15
Wind Variable Wind from East

Today
High -- | Low -- °F
--% Chance of Precip.
Yesterday
High -- | Low -- °F
Precip. -- in
5:42 AM 5:29 PM
Waxing Gibbous, 95% visible
Pressure 29.89 in
Visibility 5.6 miles
Clouds Few 2000 ft
Heat Index 84 °F
Dew Point 70 °F
Humidity 70%
Rainfall 0.00 in
Snow Depth Not available.
UV 0 out of 12
Pollen Not available.
Air Quality Not available.
Flu Activity Not available.
METAR WARR 291330Z 10013KT 9000 FEW020 27/21 Q1012

More Conditions Fewer Conditions

Pressure 29.89 in
Visibility 5.6 miles
Clouds Few 2000 ft
Heat Index 84 °F
Dew Point 70 °F
Humidity 70%
Rainfall 0.00 in
Snow Depth Not available.
UV 0 out of 12
Pollen Not available.
Air Quality Not available.
Flu Activity Not available.
METAR WARR 291330Z 10013KT 9000 FEW020 27/21 Q1012

More Conditions Fewer Conditions

10-Day Weather Forecast

×

Almanac

Astronomy

Jul. 29, 2015 Rise Set
Actual Time
Civil Twilight
Nautical Twilight
Astronomical Twilight
Moon
Length of Visible Light
Length of Day
Tomorrow will be .
, % of the Moon is Illuminated

Today's Extremes

Country Highs Country Lows

Community

WunderPhotos

Upload Photos

1,842,097 photos uploaded!

WunderBlogs® & News

Nearby

Air Quality

  Air Quality AQ Index Pollutant
Not available.

Snow Depth

Station Depth Elevation

Earthquake Activity

City Distance Mag. Time & Date
Minimum magnitude displayed is 2.5.

Coastal Water Temperatures

Place Temperature

Stations

Nearby Weather Stations

Station Location Temp. Windchill Dew Point Humidity Wind Precip. Elev Updated Type